sensor_id;sensor_type;location;lat;lon;timestamp;P1;durP1;ratioP1;P2;durP2;ratioP2
37805;SDS011;25082;50.870;0.022;2022-12-16T00:02:10;9.70;;;5.53;;
37805;SDS011;25082;50.870;0.022;2022-12-16T00:04:35;9.68;;;5.90;;
37805;SDS011;25082;50.870;0.022;2022-12-16T00:07:01;9.48;;;5.03;;
37805;SDS011;25082;50.870;0.022;2022-12-16T00:09:27;10.82;;;5.20;;
37805;SDS011;25082;50.870;0.022;2022-12-16T00:11:52;9.57;;;5.57;;
37805;SDS011;25082;50.870;0.022;2022-12-16T00:14:18;8.43;;;5.38;;
37805;SDS011;25082;50.870;0.022;2022-12-16T00:16:44;8.07;;;4.78;;
37805;SDS011;25082;50.870;0.022;2022-12-16T00:19:09;8.02;;;5.00;;
37805;SDS011;25082;50.870;0.022;2022-12-16T00:21:35;8.20;;;4.90;;
37805;SDS011;25082;50.870;0.022;2022-12-16T00:24:01;7.43;;;4.93;;
37805;SDS011;25082;50.870;0.022;2022-12-16T00:26:27;7.97;;;4.85;;
37805;SDS011;25082;50.870;0.022;2022-12-16T00:28:55;8.00;;;5.13;;
37805;SDS011;25082;50.870;0.022;2022-12-16T00:31:21;7.65;;;5.00;;
37805;SDS011;25082;50.870;0.022;2022-12-16T00:33:47;7.70;;;4.97;;
37805;SDS011;25082;50.870;0.022;2022-12-16T00:36:13;7.95;;;4.93;;
37805;SDS011;25082;50.870;0.022;2022-12-16T00:38:38;6.63;;;4.97;;
37805;SDS011;25082;50.870;0.022;2022-12-16T00:41:04;7.70;;;4.93;;
37805;SDS011;25082;50.870;0.022;2022-12-16T00:43:30;8.40;;;4.93;;
37805;SDS011;25082;50.870;0.022;2022-12-16T00:45:56;7.53;;;4.75;;
37805;SDS011;25082;50.870;0.022;2022-12-16T00:48:22;7.45;;;4.78;;
37805;SDS011;25082;50.870;0.022;2022-12-16T00:50:49;7.15;;;5.03;;
37805;SDS011;25082;50.870;0.022;2022-12-16T00:53:15;9.27;;;5.07;;
37805;SDS011;25082;50.870;0.022;2022-12-16T00:55:41;7.95;;;5.05;;
37805;SDS011;25082;50.870;0.022;2022-12-16T00:58:07;7.10;;;4.82;;
37805;SDS011;25082;50.870;0.022;2022-12-16T01:00:33;8.27;;;4.80;;
37805;SDS011;25082;50.870;0.022;2022-12-16T01:02:59;10.05;;;4.78;;
37805;SDS011;25082;50.870;0.022;2022-12-16T01:05:25;8.18;;;4.80;;
37805;SDS011;25082;50.870;0.022;2022-12-16T01:07:54;8.57;;;4.90;;
37805;SDS011;25082;50.870;0.022;2022-12-16T01:10:21;8.13;;;4.65;;
37805;SDS011;25082;50.870;0.022;2022-12-16T01:12:48;8.07;;;4.80;;
37805;SDS011;25082;50.870;0.022;2022-12-16T01:15:14;8.73;;;5.22;;
37805;SDS011;25082;50.870;0.022;2022-12-16T01:17:40;9.00;;;5.25;;
37805;SDS011;25082;50.870;0.022;2022-12-16T01:20:07;7.38;;;4.68;;
37805;SDS011;25082;50.870;0.022;2022-12-16T01:22:34;9.57;;;5.20;;
37805;SDS011;25082;50.870;0.022;2022-12-16T01:25:00;8.45;;;4.50;;
37805;SDS011;25082;50.870;0.022;2022-12-16T01:27:26;7.60;;;5.03;;
37805;SDS011;25082;50.870;0.022;2022-12-16T01:29:52;7.68;;;4.60;;
37805;SDS011;25082;50.870;0.022;2022-12-16T01:32:18;7.20;;;4.35;;
37805;SDS011;25082;50.870;0.022;2022-12-16T01:34:48;7.70;;;4.55;;
37805;SDS011;25082;50.870;0.022;2022-12-16T01:37:15;7.95;;;4.50;;
37805;SDS011;25082;50.870;0.022;2022-12-16T01:39:41;7.05;;;4.88;;
37805;SDS011;25082;50.870;0.022;2022-12-16T01:42:13;9.10;;;5.05;;
37805;SDS011;25082;50.870;0.022;2022-12-16T01:44:41;7.40;;;4.63;;
37805;SDS011;25082;50.870;0.022;2022-12-16T01:47:08;6.95;;;4.50;;
37805;SDS011;25082;50.870;0.022;2022-12-16T01:49:48;9.70;;;5.38;;
37805;SDS011;25082;50.870;0.022;2022-12-16T01:52:20;9.45;;;5.35;;
37805;SDS011;25082;50.870;0.022;2022-12-16T01:54:53;9.32;;;5.05;;
37805;SDS011;25082;50.870;0.022;2022-12-16T01:57:39;7.38;;;4.82;;
37805;SDS011;25082;50.870;0.022;2022-12-16T02:00:08;8.50;;;4.80;;
37805;SDS011;25082;50.870;0.022;2022-12-16T02:02:34;7.65;;;4.30;;
37805;SDS011;25082;50.870;0.022;2022-12-16T02:05:01;7.72;;;4.40;;
37805;SDS011;25082;50.870;0.022;2022-12-16T02:10:25;8.65;;;4.93;;
37805;SDS011;25082;50.870;0.022;2022-12-16T02:18:25;7.70;;;5.40;;
37805;SDS011;25082;50.870;0.022;2022-12-16T02:31:39;7.20;;;5.13;;
37805;SDS011;25082;50.870;0.022;2022-12-16T02:39:36;7.60;;;4.63;;
37805;SDS011;25082;50.870;0.022;2022-12-16T02:42:49;7.70;;;4.88;;
37805;SDS011;25082;50.870;0.022;2022-12-16T02:47:39;6.18;;;3.92;;
37805;SDS011;25082;50.870;0.022;2022-12-16T02:50:12;10.07;;;5.32;;
37805;SDS011;25082;50.870;0.022;2022-12-16T02:53:00;9.38;;;5.00;;
37805;SDS011;25082;50.870;0.022;2022-12-16T02:55:31;8.18;;;4.72;;
37805;SDS011;25082;50.870;0.022;2022-12-16T02:58:41;8.05;;;4.90;;
37805;SDS011;25082;50.870;0.022;2022-12-16T03:03:44;6.07;;;4.22;;
37805;SDS011;25082;50.870;0.022;2022-12-16T03:06:16;7.18;;;4.38;;
37805;SDS011;25082;50.870;0.022;2022-12-16T03:08:44;8.23;;;4.15;;
37805;SDS011;25082;50.870;0.022;2022-12-16T03:13:43;7.03;;;4.20;;
37805;SDS011;25082;50.870;0.022;2022-12-16T03:16:14;6.82;;;4.47;;
37805;SDS011;25082;50.870;0.022;2022-12-16T03:18:44;7.97;;;4.72;;
37805;SDS011;25082;50.870;0.022;2022-12-16T03:21:14;7.10;;;4.18;;
37805;SDS011;25082;50.870;0.022;2022-12-16T03:26:43;6.53;;;4.57;;
37805;SDS011;25082;50.870;0.022;2022-12-16T03:35:25;7.35;;;4.60;;
37805;SDS011;25082;50.870;0.022;2022-12-16T03:37:57;7.32;;;4.47;;
37805;SDS011;25082;50.870;0.022;2022-12-16T03:40:26;7.88;;;4.47;;
37805;SDS011;25082;50.870;0.022;2022-12-16T03:42:53;6.20;;;4.18;;
37805;SDS011;25082;50.870;0.022;2022-12-16T03:45:24;6.43;;;4.65;;
37805;SDS011;25082;50.870;0.022;2022-12-16T03:47:55;5.72;;;4.13;;
37805;SDS011;25082;50.870;0.022;2022-12-16T03:50:28;7.15;;;4.40;;
37805;SDS011;25082;50.870;0.022;2022-12-16T03:52:57;6.50;;;3.97;;
37805;SDS011;25082;50.870;0.022;2022-12-16T03:55:23;8.02;;;4.35;;
37805;SDS011;25082;50.870;0.022;2022-12-16T03:57:49;6.50;;;4.40;;
37805;SDS011;25082;50.870;0.022;2022-12-16T04:00:15;6.43;;;4.20;;
37805;SDS011;25082;50.870;0.022;2022-12-16T04:02:41;6.80;;;4.07;;
37805;SDS011;25082;50.870;0.022;2022-12-16T04:05:07;8.63;;;4.35;;
37805;SDS011;25082;50.870;0.022;2022-12-16T04:07:33;7.78;;;4.40;;
37805;SDS011;25082;50.870;0.022;2022-12-16T04:09:59;7.00;;;4.25;;
37805;SDS011;25082;50.870;0.022;2022-12-16T04:12:24;7.38;;;4.43;;
37805;SDS011;25082;50.870;0.022;2022-12-16T04:15:09;7.07;;;4.45;;
37805;SDS011;25082;50.870;0.022;2022-12-16T04:17:53;8.52;;;4.28;;
37805;SDS011;25082;50.870;0.022;2022-12-16T04:20:38;12.48;;;4.95;;
37805;SDS011;25082;50.870;0.022;2022-12-16T04:23:25;8.88;;;4.13;;
37805;SDS011;25082;50.870;0.022;2022-12-16T04:26:13;6.15;;;3.88;;
37805;SDS011;25082;50.870;0.022;2022-12-16T04:28:39;8.30;;;4.28;;
37805;SDS011;25082;50.870;0.022;2022-12-16T04:31:05;8.05;;;4.50;;
37805;SDS011;25082;50.870;0.022;2022-12-16T04:33:31;8.13;;;4.57;;
37805;SDS011;25082;50.870;0.022;2022-12-16T04:36:15;6.45;;;3.83;;
37805;SDS011;25082;50.870;0.022;2022-12-16T04:38:59;7.82;;;4.38;;
37805;SDS011;25082;50.870;0.022;2022-12-16T04:41:43;5.13;;;3.70;;
37805;SDS011;25082;50.870;0.022;2022-12-16T04:44:27;7.88;;;4.53;;
37805;SDS011;25082;50.870;0.022;2022-12-16T04:47:19;5.70;;;4.00;;
37805;SDS011;25082;50.870;0.022;2022-12-16T04:50:03;6.97;;;4.50;;
37805;SDS011;25082;50.870;0.022;2022-12-16T04:52:51;5.63;;;3.83;;
37805;SDS011;25082;50.870;0.022;2022-12-16T04:55:36;6.53;;;4.10;;
37805;SDS011;25082;50.870;0.022;2022-12-16T04:58:20;6.30;;;4.38;;
37805;SDS011;25082;50.870;0.022;2022-12-16T05:01:04;6.90;;;3.70;;
37805;SDS011;25082;50.870;0.022;2022-12-16T05:03:49;7.20;;;4.60;;
37805;SDS011;25082;50.870;0.022;2022-12-16T05:06:33;10.48;;;4.53;;
37805;SDS011;25082;50.870;0.022;2022-12-16T05:09:17;8.13;;;4.57;;
37805;SDS011;25082;50.870;0.022;2022-12-16T05:12:01;5.60;;;3.90;;
37805;SDS011;25082;50.870;0.022;2022-12-16T05:14:46;7.85;;;4.63;;
37805;SDS011;25082;50.870;0.022;2022-12-16T05:17:30;7.05;;;4.40;;
37805;SDS011;25082;50.870;0.022;2022-12-16T05:20:14;7.45;;;4.90;;
37805;SDS011;25082;50.870;0.022;2022-12-16T05:22:58;7.07;;;4.10;;
37805;SDS011;25082;50.870;0.022;2022-12-16T05:25:42;7.75;;;4.80;;
37805;SDS011;25082;50.870;0.022;2022-12-16T05:28:27;6.03;;;3.92;;
37805;SDS011;25082;50.870;0.022;2022-12-16T05:31:11;7.55;;;4.50;;
37805;SDS011;25082;50.870;0.022;2022-12-16T05:33:55;6.47;;;4.50;;
37805;SDS011;25082;50.870;0.022;2022-12-16T05:36:39;8.23;;;4.43;;
37805;SDS011;25082;50.870;0.022;2022-12-16T05:39:23;9.73;;;4.72;;
37805;SDS011;25082;50.870;0.022;2022-12-16T05:42:07;9.48;;;4.80;;
37805;SDS011;25082;50.870;0.022;2022-12-16T05:44:51;8.60;;;4.35;;
37805;SDS011;25082;50.870;0.022;2022-12-16T05:47:35;7.78;;;4.18;;
37805;SDS011;25082;50.870;0.022;2022-12-16T05:50:19;7.38;;;4.18;;
37805;SDS011;25082;50.870;0.022;2022-12-16T05:53:03;6.68;;;4.50;;
37805;SDS011;25082;50.870;0.022;2022-12-16T05:55:47;8.32;;;4.50;;
37805;SDS011;25082;50.870;0.022;2022-12-16T05:58:31;6.05;;;4.00;;
37805;SDS011;25082;50.870;0.022;2022-12-16T06:01:16;8.98;;;4.97;;
37805;SDS011;25082;50.870;0.022;2022-12-16T06:04:00;9.38;;;4.80;;
37805;SDS011;25082;50.870;0.022;2022-12-16T06:06:44;7.75;;;4.43;;
37805;SDS011;25082;50.870;0.022;2022-12-16T06:09:28;8.48;;;4.13;;
37805;SDS011;25082;50.870;0.022;2022-12-16T06:12:13;7.95;;;4.30;;
37805;SDS011;25082;50.870;0.022;2022-12-16T06:14:57;7.63;;;4.55;;
37805;SDS011;25082;50.870;0.022;2022-12-16T06:17:42;6.35;;;4.07;;
37805;SDS011;25082;50.870;0.022;2022-12-16T06:20:30;6.10;;;3.97;;
37805;SDS011;25082;50.870;0.022;2022-12-16T06:23:15;5.82;;;4.10;;
37805;SDS011;25082;50.870;0.022;2022-12-16T06:25:59;7.63;;;4.40;;
37805;SDS011;25082;50.870;0.022;2022-12-16T06:28:43;6.63;;;4.28;;
37805;SDS011;25082;50.870;0.022;2022-12-16T06:31:27;6.82;;;4.28;;
37805;SDS011;25082;50.870;0.022;2022-12-16T06:34:11;6.43;;;4.53;;
37805;SDS011;25082;50.870;0.022;2022-12-16T06:36:55;10.45;;;4.75;;
37805;SDS011;25082;50.870;0.022;2022-12-16T06:39:39;7.70;;;4.40;;
37805;SDS011;25082;50.870;0.022;2022-12-16T06:42:23;6.53;;;4.43;;
37805;SDS011;25082;50.870;0.022;2022-12-16T06:45:07;6.75;;;4.25;;
37805;SDS011;25082;50.870;0.022;2022-12-16T06:47:52;9.88;;;5.30;;
37805;SDS011;25082;50.870;0.022;2022-12-16T06:50:35;8.80;;;4.88;;
37805;SDS011;25082;50.870;0.022;2022-12-16T06:53:20;6.10;;;4.20;;
37805;SDS011;25082;50.870;0.022;2022-12-16T06:56:04;7.00;;;4.75;;
37805;SDS011;25082;50.870;0.022;2022-12-16T06:58:48;5.82;;;3.95;;
37805;SDS011;25082;50.870;0.022;2022-12-16T07:01:32;7.38;;;4.20;;
37805;SDS011;25082;50.870;0.022;2022-12-16T07:04:16;9.25;;;5.05;;
37805;SDS011;25082;50.870;0.022;2022-12-16T07:07:00;7.57;;;4.35;;
37805;SDS011;25082;50.870;0.022;2022-12-16T07:09:44;6.75;;;4.43;;
37805;SDS011;25082;50.870;0.022;2022-12-16T07:12:28;9.32;;;4.88;;
37805;SDS011;25082;50.870;0.022;2022-12-16T07:15:12;8.25;;;4.80;;
37805;SDS011;25082;50.870;0.022;2022-12-16T07:17:56;5.53;;;3.45;;
37805;SDS011;25082;50.870;0.022;2022-12-16T07:20:40;7.10;;;4.38;;
37805;SDS011;25082;50.870;0.022;2022-12-16T07:23:24;6.03;;;4.03;;
37805;SDS011;25082;50.870;0.022;2022-12-16T07:26:08;6.10;;;4.57;;
37805;SDS011;25082;50.870;0.022;2022-12-16T07:28:52;7.15;;;4.38;;
37805;SDS011;25082;50.870;0.022;2022-12-16T07:31:37;7.93;;;4.70;;
37805;SDS011;25082;50.870;0.022;2022-12-16T07:34:21;6.70;;;4.22;;
37805;SDS011;25082;50.870;0.022;2022-12-16T07:37:05;6.13;;;4.15;;
37805;SDS011;25082;50.870;0.022;2022-12-16T07:39:49;7.13;;;4.38;;
37805;SDS011;25082;50.870;0.022;2022-12-16T07:42:33;6.28;;;4.20;;
37805;SDS011;25082;50.870;0.022;2022-12-16T07:45:17;7.57;;;4.95;;
37805;SDS011;25082;50.870;0.022;2022-12-16T07:48:01;6.18;;;4.05;;
37805;SDS011;25082;50.870;0.022;2022-12-16T07:50:46;5.70;;;4.03;;
37805;SDS011;25082;50.870;0.022;2022-12-16T07:53:30;7.15;;;4.82;;
37805;SDS011;25082;50.870;0.022;2022-12-16T07:56:14;6.80;;;3.90;;
37805;SDS011;25082;50.870;0.022;2022-12-16T07:58:58;8.43;;;4.70;;
37805;SDS011;25082;50.870;0.022;2022-12-16T08:01:42;7.70;;;4.68;;
37805;SDS011;25082;50.870;0.022;2022-12-16T08:04:26;6.75;;;4.05;;
37805;SDS011;25082;50.870;0.022;2022-12-16T08:07:10;7.18;;;4.00;;
37805;SDS011;25082;50.870;0.022;2022-12-16T08:09:54;6.22;;;3.70;;
37805;SDS011;25082;50.870;0.022;2022-12-16T08:12:39;8.10;;;4.47;;
37805;SDS011;25082;50.870;0.022;2022-12-16T08:15:23;7.28;;;4.20;;
37805;SDS011;25082;50.870;0.022;2022-12-16T08:18:07;7.18;;;4.85;;
37805;SDS011;25082;50.870;0.022;2022-12-16T08:20:51;8.55;;;4.35;;
37805;SDS011;25082;50.870;0.022;2022-12-16T08:23:36;7.03;;;4.15;;
37805;SDS011;25082;50.870;0.022;2022-12-16T08:26:20;6.65;;;4.18;;
37805;SDS011;25082;50.870;0.022;2022-12-16T08:29:04;7.50;;;4.70;;
37805;SDS011;25082;50.870;0.022;2022-12-16T08:31:48;5.10;;;3.63;;
37805;SDS011;25082;50.870;0.022;2022-12-16T08:34:32;6.72;;;4.60;;
37805;SDS011;25082;50.870;0.022;2022-12-16T08:37:16;6.45;;;4.15;;
37805;SDS011;25082;50.870;0.022;2022-12-16T08:40:01;6.07;;;4.22;;
37805;SDS011;25082;50.870;0.022;2022-12-16T08:42:45;6.05;;;4.55;;
37805;SDS011;25082;50.870;0.022;2022-12-16T08:45:29;7.55;;;4.03;;
37805;SDS011;25082;50.870;0.022;2022-12-16T08:48:13;7.68;;;4.05;;
37805;SDS011;25082;50.870;0.022;2022-12-16T08:51:00;7.15;;;4.25;;
37805;SDS011;25082;50.870;0.022;2022-12-16T08:53:45;6.75;;;4.22;;
37805;SDS011;25082;50.870;0.022;2022-12-16T08:56:30;5.65;;;4.18;;
37805;SDS011;25082;50.870;0.022;2022-12-16T08:59:14;5.28;;;3.63;;
37805;SDS011;25082;50.870;0.022;2022-12-16T09:01:58;8.75;;;4.53;;
37805;SDS011;25082;50.870;0.022;2022-12-16T09:04:42;9.20;;;4.75;;
37805;SDS011;25082;50.870;0.022;2022-12-16T09:07:26;17.33;;;4.60;;
37805;SDS011;25082;50.870;0.022;2022-12-16T09:10:11;10.45;;;5.03;;
37805;SDS011;25082;50.870;0.022;2022-12-16T09:13:12;8.82;;;4.07;;
37805;SDS011;25082;50.870;0.022;2022-12-16T09:15:58;9.60;;;4.53;;
37805;SDS011;25082;50.870;0.022;2022-12-16T09:18:42;6.55;;;4.53;;
37805;SDS011;25082;50.870;0.022;2022-12-16T09:21:27;7.32;;;4.07;;
37805;SDS011;25082;50.870;0.022;2022-12-16T09:24:11;11.45;;;6.05;;
37805;SDS011;25082;50.870;0.022;2022-12-16T09:26:55;28.40;;;9.30;;
37805;SDS011;25082;50.870;0.022;2022-12-16T09:29:39;26.73;;;8.05;;
37805;SDS011;25082;50.870;0.022;2022-12-16T09:32:23;18.38;;;5.97;;
37805;SDS011;25082;50.870;0.022;2022-12-16T09:35:08;15.18;;;5.35;;
37805;SDS011;25082;50.870;0.022;2022-12-16T09:37:52;35.15;;;8.38;;
37805;SDS011;25082;50.870;0.022;2022-12-16T09:40:37;33.25;;;6.40;;
37805;SDS011;25082;50.870;0.022;2022-12-16T09:43:30;16.98;;;6.20;;
37805;SDS011;25082;50.870;0.022;2022-12-16T09:52:27;23.95;;;8.90;;
37805;SDS011;25082;50.870;0.022;2022-12-16T09:55:21;21.55;;;6.30;;
37805;SDS011;25082;50.870;0.022;2022-12-16T09:58:13;14.23;;;6.85;;
37805;SDS011;25082;50.870;0.022;2022-12-16T10:00:59;13.48;;;6.32;;
37805;SDS011;25082;50.870;0.022;2022-12-16T10:03:44;14.30;;;5.00;;
37805;SDS011;25082;50.870;0.022;2022-12-16T10:06:51;11.15;;;5.00;;
37805;SDS011;25082;50.870;0.022;2022-12-16T10:12:50;40.72;;;9.20;;
37805;SDS011;25082;50.870;0.022;2022-12-16T10:22:01;17.75;;;6.05;;
37805;SDS011;25082;50.870;0.022;2022-12-16T10:25:02;22.52;;;5.97;;
37805;SDS011;25082;50.870;0.022;2022-12-16T10:31:50;21.95;;;6.65;;
37805;SDS011;25082;50.870;0.022;2022-12-16T10:34:34;20.98;;;5.25;;
37805;SDS011;25082;50.870;0.022;2022-12-16T10:40:24;14.40;;;4.57;;
37805;SDS011;25082;50.870;0.022;2022-12-16T10:46:09;15.45;;;4.95;;
37805;SDS011;25082;50.870;0.022;2022-12-16T10:48:58;10.60;;;4.50;;
37805;SDS011;25082;50.870;0.022;2022-12-16T10:51:42;10.48;;;4.03;;
37805;SDS011;25082;50.870;0.022;2022-12-16T10:54:31;13.43;;;4.45;;
37805;SDS011;25082;50.870;0.022;2022-12-16T10:57:31;13.07;;;4.70;;
37805;SDS011;25082;50.870;0.022;2022-12-16T11:00:37;10.02;;;3.95;;
37805;SDS011;25082;50.870;0.022;2022-12-16T11:03:24;10.10;;;4.07;;
37805;SDS011;25082;50.870;0.022;2022-12-16T11:06:12;21.98;;;10.20;;
37805;SDS011;25082;50.870;0.022;2022-12-16T11:12:21;19.40;;;8.80;;
37805;SDS011;25082;50.870;0.022;2022-12-16T11:15:23;15.32;;;6.95;;
37805;SDS011;25082;50.870;0.022;2022-12-16T11:18:28;16.17;;;6.40;;
37805;SDS011;25082;50.870;0.022;2022-12-16T11:21:16;10.50;;;5.30;;
37805;SDS011;25082;50.870;0.022;2022-12-16T11:24:16;10.02;;;4.70;;
37805;SDS011;25082;50.870;0.022;2022-12-16T11:27:02;10.88;;;4.65;;
37805;SDS011;25082;50.870;0.022;2022-12-16T11:32:32;6.97;;;3.90;;
37805;SDS011;25082;50.870;0.022;2022-12-16T11:35:18;7.68;;;3.92;;
37805;SDS011;25082;50.870;0.022;2022-12-16T11:38:09;10.43;;;4.40;;
37805;SDS011;25082;50.870;0.022;2022-12-16T11:41:06;8.57;;;4.13;;
37805;SDS011;25082;50.870;0.022;2022-12-16T11:43:56;7.82;;;3.67;;
37805;SDS011;25082;50.870;0.022;2022-12-16T11:46:42;8.15;;;4.40;;
37805;SDS011;25082;50.870;0.022;2022-12-16T11:49:41;10.32;;;3.70;;
37805;SDS011;25082;50.870;0.022;2022-12-16T11:52:25;8.43;;;3.97;;
37805;SDS011;25082;50.870;0.022;2022-12-16T11:55:20;9.13;;;3.85;;
37805;SDS011;25082;50.870;0.022;2022-12-16T12:04:00;9.10;;;4.93;;
37805;SDS011;25082;50.870;0.022;2022-12-16T12:06:53;12.32;;;4.25;;
37805;SDS011;25082;50.870;0.022;2022-12-16T12:09:56;9.75;;;4.63;;
37805;SDS011;25082;50.870;0.022;2022-12-16T12:12:56;11.23;;;4.05;;
37805;SDS011;25082;50.870;0.022;2022-12-16T12:15:52;8.25;;;3.83;;
37805;SDS011;25082;50.870;0.022;2022-12-16T12:18:49;8.60;;;3.72;;
37805;SDS011;25082;50.870;0.022;2022-12-16T12:22:00;9.20;;;4.35;;
37805;SDS011;25082;50.870;0.022;2022-12-16T12:24:58;10.18;;;4.70;;
37805;SDS011;25082;50.870;0.022;2022-12-16T12:28:02;12.82;;;5.28;;
37805;SDS011;25082;50.870;0.022;2022-12-16T12:31:27;13.02;;;4.40;;
37805;SDS011;25082;50.870;0.022;2022-12-16T12:37:33;11.45;;;4.68;;
37805;SDS011;25082;50.870;0.022;2022-12-16T12:43:55;8.48;;;4.50;;
37805;SDS011;25082;50.870;0.022;2022-12-16T12:46:56;12.60;;;4.10;;
37805;SDS011;25082;50.870;0.022;2022-12-16T12:58:57;9.80;;;3.90;;
37805;SDS011;25082;50.870;0.022;2022-12-16T13:01:46;10.05;;;3.97;;
37805;SDS011;25082;50.870;0.022;2022-12-16T13:04:33;6.95;;;4.13;;
37805;SDS011;25082;50.870;0.022;2022-12-16T13:07:17;9.55;;;4.10;;
37805;SDS011;25082;50.870;0.022;2022-12-16T13:15:58;7.10;;;4.55;;
37805;SDS011;25082;50.870;0.022;2022-12-16T13:18:43;9.38;;;4.68;;
37805;SDS011;25082;50.870;0.022;2022-12-16T13:27:22;11.32;;;4.38;;
37805;SDS011;25082;50.870;0.022;2022-12-16T13:33:02;9.63;;;4.35;;
37805;SDS011;25082;50.870;0.022;2022-12-16T13:36:04;9.02;;;4.65;;
37805;SDS011;25082;50.870;0.022;2022-12-16T13:38:52;8.05;;;4.22;;
37805;SDS011;25082;50.870;0.022;2022-12-16T13:41:46;10.73;;;5.28;;
37805;SDS011;25082;50.870;0.022;2022-12-16T13:45:14;8.07;;;5.00;;
37805;SDS011;25082;50.870;0.022;2022-12-16T13:50:33;12.40;;;5.63;;
37805;SDS011;25082;50.870;0.022;2022-12-16T13:53:22;10.98;;;5.82;;
37805;SDS011;25082;50.870;0.022;2022-12-16T13:56:11;10.57;;;5.28;;
37805;SDS011;25082;50.870;0.022;2022-12-16T13:58:59;18.88;;;5.68;;
37805;SDS011;25082;50.870;0.022;2022-12-16T14:04:24;9.63;;;5.22;;
37805;SDS011;25082;50.870;0.022;2022-12-16T14:07:10;11.20;;;5.88;;
37805;SDS011;25082;50.870;0.022;2022-12-16T14:09:55;16.52;;;5.93;;
37805;SDS011;25082;50.870;0.022;2022-12-16T14:13:02;9.25;;;5.47;;
37805;SDS011;25082;50.870;0.022;2022-12-16T14:15:56;10.68;;;5.18;;
37805;SDS011;25082;50.870;0.022;2022-12-16T14:25:43;13.73;;;5.55;;
37805;SDS011;25082;50.870;0.022;2022-12-16T14:28:30;20.70;;;5.75;;
37805;SDS011;25082;50.870;0.022;2022-12-16T14:31:19;20.48;;;6.82;;
37805;SDS011;25082;50.870;0.022;2022-12-16T14:34:16;24.35;;;6.75;;
37805;SDS011;25082;50.870;0.022;2022-12-16T14:37:16;17.58;;;6.05;;
37805;SDS011;25082;50.870;0.022;2022-12-16T14:40:29;17.48;;;6.50;;
37805;SDS011;25082;50.870;0.022;2022-12-16T14:43:15;17.63;;;6.00;;
37805;SDS011;25082;50.870;0.022;2022-12-16T14:46:23;18.00;;;6.32;;
37805;SDS011;25082;50.870;0.022;2022-12-16T14:52:14;17.67;;;5.97;;
37805;SDS011;25082;50.870;0.022;2022-12-16T14:55:04;14.38;;;5.60;;
37805;SDS011;25082;50.870;0.022;2022-12-16T15:00:53;10.25;;;5.40;;
37805;SDS011;25082;50.870;0.022;2022-12-16T15:03:41;10.50;;;5.78;;
37805;SDS011;25082;50.870;0.022;2022-12-16T15:06:39;18.90;;;8.25;;
37805;SDS011;25082;50.870;0.022;2022-12-16T15:09:27;13.88;;;6.15;;
37805;SDS011;25082;50.870;0.022;2022-12-16T15:12:15;14.45;;;6.05;;
37805;SDS011;25082;50.870;0.022;2022-12-16T15:15:09;15.68;;;6.25;;
37805;SDS011;25082;50.870;0.022;2022-12-16T15:21:21;11.38;;;6.43;;
37805;SDS011;25082;50.870;0.022;2022-12-16T15:24:09;12.20;;;6.15;;
37805;SDS011;25082;50.870;0.022;2022-12-16T15:30:02;13.35;;;6.15;;
37805;SDS011;25082;50.870;0.022;2022-12-16T15:33:09;10.68;;;6.43;;
37805;SDS011;25082;50.870;0.022;2022-12-16T15:35:51;12.45;;;6.32;;
37805;SDS011;25082;50.870;0.022;2022-12-16T15:38:44;16.70;;;6.07;;
37805;SDS011;25082;50.870;0.022;2022-12-16T15:41:29;12.90;;;6.35;;
37805;SDS011;25082;50.870;0.022;2022-12-16T15:44:19;13.27;;;5.78;;
37805;SDS011;25082;50.870;0.022;2022-12-16T15:47:29;11.18;;;5.30;;
37805;SDS011;25082;50.870;0.022;2022-12-16T15:50:18;9.68;;;5.10;;
37805;SDS011;25082;50.870;0.022;2022-12-16T15:53:41;8.32;;;5.20;;
37805;SDS011;25082;50.870;0.022;2022-12-16T15:56:20;11.48;;;5.97;;
37805;SDS011;25082;50.870;0.022;2022-12-16T15:59:51;10.93;;;5.68;;
37805;SDS011;25082;50.870;0.022;2022-12-16T16:02:22;7.85;;;4.63;;
37805;SDS011;25082;50.870;0.022;2022-12-16T16:05:13;9.40;;;4.90;;
37805;SDS011;25082;50.870;0.022;2022-12-16T16:08:00;13.98;;;5.50;;
37805;SDS011;25082;50.870;0.022;2022-12-16T16:10:44;9.77;;;5.25;;
37805;SDS011;25082;50.870;0.022;2022-12-16T16:13:29;11.73;;;5.53;;
37805;SDS011;25082;50.870;0.022;2022-12-16T16:16:13;8.77;;;5.05;;
37805;SDS011;25082;50.870;0.022;2022-12-16T16:18:58;7.45;;;4.80;;
37805;SDS011;25082;50.870;0.022;2022-12-16T16:21:43;9.35;;;5.68;;
37805;SDS011;25082;50.870;0.022;2022-12-16T16:24:27;9.25;;;5.18;;
37805;SDS011;25082;50.870;0.022;2022-12-16T16:27:12;10.32;;;5.53;;
37805;SDS011;25082;50.870;0.022;2022-12-16T16:29:58;7.95;;;5.00;;
37805;SDS011;25082;50.870;0.022;2022-12-16T16:32:43;8.65;;;4.75;;
37805;SDS011;25082;50.870;0.022;2022-12-16T16:35:27;11.35;;;5.20;;
37805;SDS011;25082;50.870;0.022;2022-12-16T16:38:13;8.50;;;5.47;;
37805;SDS011;25082;50.870;0.022;2022-12-16T16:40:57;13.90;;;5.45;;
37805;SDS011;25082;50.870;0.022;2022-12-16T16:43:42;7.65;;;4.90;;
37805;SDS011;25082;50.870;0.022;2022-12-16T16:46:36;8.80;;;4.82;;
37805;SDS011;25082;50.870;0.022;2022-12-16T16:49:30;11.18;;;5.05;;
37805;SDS011;25082;50.870;0.022;2022-12-16T16:52:17;9.05;;;4.93;;
37805;SDS011;25082;50.870;0.022;2022-12-16T16:55:03;7.68;;;5.13;;
37805;SDS011;25082;50.870;0.022;2022-12-16T16:57:48;8.30;;;5.10;;
37805;SDS011;25082;50.870;0.022;2022-12-16T17:00:33;11.80;;;5.47;;
37805;SDS011;25082;50.870;0.022;2022-12-16T17:03:17;9.23;;;5.63;;
37805;SDS011;25082;50.870;0.022;2022-12-16T17:06:02;8.02;;;5.32;;
37805;SDS011;25082;50.870;0.022;2022-12-16T17:08:46;9.38;;;5.05;;
37805;SDS011;25082;50.870;0.022;2022-12-16T17:11:31;8.23;;;5.03;;
37805;SDS011;25082;50.870;0.022;2022-12-16T17:14:17;7.22;;;4.63;;
37805;SDS011;25082;50.870;0.022;2022-12-16T17:17:03;8.13;;;5.55;;
37805;SDS011;25082;50.870;0.022;2022-12-16T17:19:47;8.05;;;5.53;;
37805;SDS011;25082;50.870;0.022;2022-12-16T17:22:32;9.93;;;5.78;;
37805;SDS011;25082;50.870;0.022;2022-12-16T17:25:16;8.95;;;6.07;;
37805;SDS011;25082;50.870;0.022;2022-12-16T17:28:01;11.05;;;5.78;;
37805;SDS011;25082;50.870;0.022;2022-12-16T17:30:46;13.02;;;6.35;;
37805;SDS011;25082;50.870;0.022;2022-12-16T17:33:30;8.90;;;6.05;;
37805;SDS011;25082;50.870;0.022;2022-12-16T17:36:15;9.05;;;5.82;;
37805;SDS011;25082;50.870;0.022;2022-12-16T17:39:00;9.40;;;5.68;;
37805;SDS011;25082;50.870;0.022;2022-12-16T17:41:45;9.40;;;6.30;;
37805;SDS011;25082;50.870;0.022;2022-12-16T17:44:29;11.63;;;5.43;;
37805;SDS011;25082;50.870;0.022;2022-12-16T17:47:14;8.55;;;5.90;;
37805;SDS011;25082;50.870;0.022;2022-12-16T17:49:59;9.77;;;5.72;;
37805;SDS011;25082;50.870;0.022;2022-12-16T17:52:43;8.50;;;5.55;;
37805;SDS011;25082;50.870;0.022;2022-12-16T17:55:27;8.38;;;6.28;;
37805;SDS011;25082;50.870;0.022;2022-12-16T17:58:11;8.13;;;6.10;;
37805;SDS011;25082;50.870;0.022;2022-12-16T18:01:03;11.25;;;6.53;;
37805;SDS011;25082;50.870;0.022;2022-12-16T18:03:48;9.88;;;6.88;;
37805;SDS011;25082;50.870;0.022;2022-12-16T18:06:33;11.88;;;7.30;;
37805;SDS011;25082;50.870;0.022;2022-12-16T18:09:17;11.32;;;7.28;;
37805;SDS011;25082;50.870;0.022;2022-12-16T18:12:01;16.92;;;8.20;;
37805;SDS011;25082;50.870;0.022;2022-12-16T18:14:46;10.88;;;8.07;;
37805;SDS011;25082;50.870;0.022;2022-12-16T18:17:30;11.25;;;7.88;;
37805;SDS011;25082;50.870;0.022;2022-12-16T18:20:14;14.43;;;9.68;;
37805;SDS011;25082;50.870;0.022;2022-12-16T18:22:58;14.90;;;10.65;;
37805;SDS011;25082;50.870;0.022;2022-12-16T18:25:42;17.83;;;12.35;;
37805;SDS011;25082;50.870;0.022;2022-12-16T18:28:27;19.83;;;14.52;;
37805;SDS011;25082;50.870;0.022;2022-12-16T18:31:11;17.30;;;13.88;;
37805;SDS011;25082;50.870;0.022;2022-12-16T18:33:55;18.63;;;14.00;;